createdAt,value
2023-09-13T00:00:20.749Z,231
2023-09-13T00:00:52.393Z,231
2023-09-13T00:07:15.784Z,242
2023-09-13T00:07:47.638Z,236
2023-09-13T00:08:19.615Z,244
2023-09-13T00:08:51.446Z,244
2023-09-13T00:09:24.438Z,244
2023-09-13T00:09:55.647Z,244
2023-09-13T00:10:28.738Z,244
2023-09-13T00:10:59.524Z,244
2023-09-13T00:11:32.545Z,244
2023-09-13T00:12:03.356Z,244
2023-09-13T00:12:36.713Z,244
2023-09-13T00:13:07.577Z,244
2023-09-13T00:13:40.565Z,240
2023-09-13T00:14:11.475Z,223
2023-09-13T00:14:44.163Z,180
2023-09-13T00:15:16.567Z,240
2023-09-13T00:15:48.718Z,215
2023-09-13T00:16:19.599Z,270
2023-09-13T00:16:52.616Z,183
2023-09-13T00:17:23.468Z,183
2023-09-13T00:17:56.468Z,183
2023-09-13T00:18:27.581Z,183
2023-09-13T00:19:00.764Z,168
2023-09-13T00:19:31.505Z,187
2023-09-13T00:20:10.182Z,187
2023-09-13T00:20:35.690Z,187
2023-09-13T00:21:07.504Z,136
2023-09-13T00:21:45.432Z,230
2023-09-13T00:22:11.732Z,181
2023-09-13T00:22:44.625Z,208
2023-09-13T00:23:15.515Z,229
2023-09-13T00:23:48.513Z,224
2023-09-13T00:24:19.665Z,224
2023-09-13T00:24:52.476Z,224
2023-09-13T00:25:23.838Z,222
2023-09-13T00:25:56.377Z,222
2023-09-13T00:26:27.643Z,257
2023-09-13T00:27:00.385Z,236
2023-09-13T00:27:31.568Z,236
2023-09-13T00:28:04.544Z,274
2023-09-13T00:28:35.458Z,252
2023-09-13T00:29:08.397Z,252
2023-09-13T00:29:39.527Z,252
2023-09-13T00:30:13.507Z,252
2023-09-13T00:30:43.650Z,186
2023-09-13T00:31:16.426Z,181
2023-09-13T00:31:47.723Z,227
2023-09-13T00:32:20.328Z,259
2023-09-13T00:32:51.637Z,259
2023-09-13T00:33:24.429Z,259
2023-09-13T00:33:55.688Z,254
2023-09-13T00:34:28.312Z,252
2023-09-13T00:34:59.550Z,251
2023-09-13T00:35:32.866Z,255
2023-09-13T00:36:03.580Z,251
2023-09-13T00:36:36.555Z,251
2023-09-13T00:37:07.636Z,247
2023-09-13T00:37:40.353Z,247
2023-09-13T00:38:11.535Z,259
2023-09-13T00:38:44.444Z,259
2023-09-13T00:39:15.592Z,259
2023-09-13T00:39:48.292Z,259
2023-09-13T00:40:19.944Z,256
2023-09-13T00:40:52.395Z,256
2023-09-13T00:41:23.544Z,261
2023-09-13T00:41:56.379Z,270
2023-09-13T00:42:27.598Z,260
2023-09-13T00:43:00.591Z,260
2023-09-13T00:43:31.573Z,265
2023-09-13T00:44:04.391Z,269
2023-09-13T00:44:35.617Z,269
2023-09-13T00:45:09.521Z,269
2023-09-13T00:45:39.762Z,269
2023-09-13T00:46:12.444Z,269
2023-09-13T00:46:43.680Z,269
2023-09-13T00:47:16.554Z,269
2023-09-13T00:47:47.583Z,269
2023-09-13T00:48:20.391Z,274
2023-09-13T00:48:51.912Z,274
2023-09-13T00:49:24.200Z,267
2023-09-13T00:49:55.717Z,267
2023-09-13T00:50:34.220Z,270
2023-09-13T00:50:59.484Z,270
2023-09-13T00:51:32.433Z,270
2023-09-13T00:52:03.716Z,270
2023-09-13T00:52:36.860Z,271
2023-09-13T00:53:07.593Z,271
2023-09-13T00:53:40.391Z,271
2023-09-13T00:54:11.657Z,279
2023-09-13T00:54:44.444Z,248
2023-09-13T00:55:15.888Z,271
2023-09-13T00:55:48.466Z,275
2023-09-13T00:56:19.487Z,275
2023-09-13T00:56:52.322Z,271
2023-09-13T00:57:23.589Z,279
2023-09-13T00:57:56.686Z,275
2023-09-13T00:58:27.503Z,279
2023-09-13T00:59:00.509Z,279
2023-09-13T00:59:31.745Z,279
2023-09-13T01:00:05.765Z,243
2023-09-13T01:00:35.581Z,271
2023-09-13T01:01:08.546Z,271
2023-09-13T01:01:39.535Z,271
2023-09-13T01:02:12.474Z,271
2023-09-13T01:02:43.675Z,227
2023-09-13T01:03:16.787Z,266
2023-09-13T01:03:48.138Z,267
2023-09-13T01:04:20.548Z,259
2023-09-13T01:04:51.789Z,259
2023-09-13T01:05:24.639Z,259
2023-09-13T01:05:56.003Z,259
2023-09-13T01:06:28.384Z,265
2023-09-13T01:06:59.491Z,265
2023-09-13T01:07:32.583Z,265
2023-09-13T01:08:03.704Z,265
2023-09-13T01:08:36.568Z,265
2023-09-13T01:09:07.518Z,265
2023-09-13T01:09:40.446Z,265
2023-09-13T01:10:12.000Z,265
2023-09-13T01:10:44.465Z,235
2023-09-13T01:11:15.546Z,235
2023-09-13T01:11:48.428Z,244
2023-09-13T01:14:11.632Z,257
2023-09-13T01:14:43.595Z,257
2023-09-13T01:15:16.484Z,257
2023-09-13T01:15:47.732Z,257
2023-09-13T01:16:19.729Z,257
2023-09-13T01:16:51.709Z,257
2023-09-13T01:17:23.505Z,257
2023-09-13T01:17:55.660Z,256
2023-09-13T01:18:27.607Z,256
2023-09-13T01:18:59.744Z,256
2023-09-13T01:19:32.530Z,256
2023-09-13T01:20:03.935Z,256
2023-09-13T01:20:36.495Z,256
2023-09-13T01:21:07.650Z,256
2023-09-13T01:21:40.444Z,256
2023-09-13T01:22:11.719Z,256
2023-09-13T01:22:44.481Z,199
2023-09-13T01:23:15.550Z,256
2023-09-13T01:23:48.417Z,261
2023-09-13T01:24:19.540Z,261
2023-09-13T01:24:52.372Z,261
2023-09-13T01:25:23.882Z,261
2023-09-13T01:25:56.355Z,269
2023-09-13T01:26:27.578Z,269
2023-09-13T01:27:00.418Z,269
2023-09-13T01:27:31.694Z,269
2023-09-13T01:28:04.303Z,269
2023-09-13T01:28:35.559Z,269
2023-09-13T01:29:08.449Z,269
2023-09-13T01:29:39.640Z,264
2023-09-13T01:30:28.629Z,264
2023-09-13T01:30:59.634Z,264
2023-09-13T01:31:31.671Z,264
2023-09-13T01:32:03.751Z,264
2023-09-13T01:32:35.464Z,264
2023-09-13T01:33:08.684Z,264
2023-09-13T01:33:39.676Z,264
2023-09-13T01:34:12.582Z,264
2023-09-13T01:34:43.560Z,264
2023-09-13T01:35:16.756Z,258
2023-09-13T01:35:47.666Z,258
2023-09-13T01:36:20.391Z,258
2023-09-13T01:36:51.553Z,270
2023-09-13T01:37:24.781Z,270
2023-09-13T01:37:55.699Z,278
2023-09-13T01:38:28.600Z,278
2023-09-13T01:38:59.575Z,278
2023-09-13T01:39:32.514Z,267
2023-09-13T01:40:04.058Z,236
2023-09-13T01:40:36.632Z,235
2023-09-13T01:41:07.730Z,236
2023-09-13T01:41:40.299Z,256
2023-09-13T01:42:11.577Z,274
2023-09-13T01:42:27.801Z,274
2023-09-13T01:42:59.519Z,227
2023-09-13T01:43:31.614Z,227
2023-09-13T01:44:03.694Z,227
2023-09-13T01:44:35.472Z,227
2023-09-13T01:45:09.801Z,227
2023-09-13T01:45:39.704Z,227
2023-09-13T01:46:12.568Z,231
2023-09-13T01:46:43.687Z,240
2023-09-13T01:47:16.655Z,240
2023-09-13T01:47:47.783Z,252
2023-09-13T01:48:20.308Z,231
2023-09-13T01:49:24.458Z,239
2023-09-13T01:49:55.678Z,247
2023-09-13T01:50:28.629Z,247
2023-09-13T01:50:59.584Z,247
2023-09-13T01:51:38.083Z,247
2023-09-13T01:52:03.528Z,245
2023-09-13T01:52:35.577Z,245
2023-09-13T01:53:08.535Z,245
2023-09-13T01:53:39.630Z,245
2023-09-13T01:54:12.340Z,245
2023-09-13T01:54:43.638Z,245
2023-09-13T01:55:17.044Z,239
2023-09-13T01:55:47.427Z,239
2023-09-13T01:56:20.336Z,239
2023-09-13T01:56:51.678Z,244
2023-09-13T01:57:24.572Z,244
2023-09-13T01:57:55.612Z,239
2023-09-13T01:58:28.460Z,228
2023-09-13T01:58:59.650Z,228
2023-09-13T02:02:11.675Z,218
2023-09-13T02:02:43.841Z,218
2023-09-13T02:03:15.553Z,278
2023-09-13T02:03:48.670Z,277
2023-09-13T02:04:19.669Z,278
2023-09-13T02:04:52.613Z,278
2023-09-13T02:05:23.835Z,278
2023-09-13T02:05:56.491Z,269
2023-09-13T02:06:27.519Z,269
2023-09-13T02:07:00.526Z,269
2023-09-13T02:07:31.719Z,269
2023-09-13T02:08:04.549Z,269
2023-09-13T02:08:35.448Z,234
2023-09-13T02:09:08.343Z,257
2023-09-13T02:09:39.638Z,257
2023-09-13T02:10:12.660Z,257
2023-09-13T02:10:43.932Z,257
2023-09-13T02:11:16.452Z,242
2023-09-13T02:11:47.750Z,272
2023-09-13T02:12:20.452Z,272
2023-09-13T02:12:51.635Z,272
2023-09-13T02:13:24.550Z,272
2023-09-13T02:13:55.578Z,266
2023-09-13T02:14:28.374Z,266
2023-09-13T02:14:59.576Z,266
2023-09-13T02:15:34.909Z,266
2023-09-13T02:16:03.613Z,273
2023-09-13T02:16:42.207Z,273
2023-09-13T02:17:07.727Z,273
2023-09-13T02:17:39.530Z,273
2023-09-13T02:18:12.474Z,273
2023-09-13T02:18:43.780Z,273
2023-09-13T02:19:16.577Z,273
2023-09-13T02:19:47.640Z,273
2023-09-13T02:20:20.772Z,273
2023-09-13T02:20:51.641Z,273
2023-09-13T02:21:24.335Z,273
2023-09-13T02:21:55.640Z,273
2023-09-13T02:22:28.759Z,273
2023-09-13T02:22:59.538Z,273
2023-09-13T02:23:32.627Z,273
2023-09-13T02:24:03.686Z,273
2023-09-13T02:24:38.232Z,278
2023-09-13T02:25:08.012Z,281
2023-09-13T02:25:40.405Z,281
2023-09-13T02:26:11.659Z,281
2023-09-13T02:26:48.316Z,239
2023-09-13T02:27:15.564Z,239
2023-09-13T02:27:47.685Z,239
2023-09-13T02:28:19.827Z,248
2023-09-13T02:28:51.595Z,248
2023-09-13T02:29:24.310Z,247
2023-09-13T02:29:55.620Z,242
2023-09-13T02:30:29.448Z,242
2023-09-13T02:30:59.788Z,245
2023-09-13T02:31:32.609Z,245
2023-09-13T02:32:03.882Z,245
2023-09-13T02:32:36.715Z,245
2023-09-13T02:33:07.699Z,247
2023-09-13T02:33:40.637Z,244
2023-09-13T02:34:11.485Z,244
2023-09-13T02:34:44.377Z,244
2023-09-13T02:35:16.069Z,244
2023-09-13T02:35:48.538Z,244
2023-09-13T02:36:19.615Z,244
2023-09-13T02:36:52.550Z,245
2023-09-13T02:37:23.733Z,245
2023-09-13T02:37:56.484Z,245
2023-09-13T02:38:27.548Z,245
2023-09-13T02:39:00.585Z,241
2023-09-13T02:39:31.688Z,240
2023-09-13T02:40:04.795Z,240
2023-09-13T02:40:35.698Z,240
2023-09-13T02:41:08.269Z,240
2023-09-13T02:41:39.571Z,240
2023-09-13T02:42:12.553Z,240
2023-09-13T02:42:43.647Z,240
2023-09-13T02:43:16.597Z,240
2023-09-13T02:43:47.846Z,240
2023-09-13T02:44:20.629Z,240
2023-09-13T02:44:51.677Z,240
2023-09-13T02:45:25.527Z,240
2023-09-13T02:45:55.763Z,241
2023-09-13T02:46:28.647Z,240
2023-09-13T02:46:59.636Z,240
2023-09-13T02:47:32.662Z,241
2023-09-13T02:48:03.806Z,241
2023-09-13T02:48:36.603Z,240
2023-09-13T02:49:07.774Z,240
2023-09-13T02:49:40.412Z,240
2023-09-13T02:50:11.837Z,240
2023-09-13T02:50:44.584Z,240
2023-09-13T02:51:15.659Z,309
2023-09-13T02:51:48.777Z,308
2023-09-13T02:52:19.651Z,308
2023-09-13T02:52:52.608Z,308
2023-09-13T02:53:23.687Z,308
2023-09-13T02:53:56.492Z,308
2023-09-13T02:54:27.652Z,308
2023-09-13T02:55:01.068Z,308
2023-09-13T02:55:31.851Z,308
2023-09-13T02:56:04.449Z,308
2023-09-13T02:56:35.663Z,308
2023-09-13T02:57:08.612Z,308
2023-09-13T02:57:39.474Z,308
2023-09-13T02:58:12.468Z,314
2023-09-13T02:58:43.585Z,314
2023-09-13T02:59:16.529Z,314
2023-09-13T02:59:47.579Z,314
2023-09-13T03:00:22.258Z,314
2023-09-13T03:00:51.946Z,314
2023-09-13T03:01:24.346Z,314
2023-09-13T03:01:55.670Z,314
2023-09-13T03:02:28.766Z,314
2023-09-13T03:02:59.784Z,314
2023-09-13T03:03:32.430Z,314
2023-09-13T03:04:03.594Z,314
2023-09-13T03:04:37.013Z,314
2023-09-13T03:05:07.951Z,314
2023-09-13T03:05:40.425Z,314
2023-09-13T03:06:11.631Z,314
2023-09-13T03:06:44.664Z,314
2023-09-13T03:07:15.683Z,314
2023-09-13T03:07:48.526Z,314
2023-09-13T03:08:19.664Z,314
2023-09-13T03:08:52.383Z,314
2023-09-13T03:09:23.562Z,314
2023-09-13T03:09:56.435Z,314
2023-09-13T03:10:27.874Z,314
2023-09-13T03:11:00.535Z,314
2023-09-13T03:11:31.619Z,314
2023-09-13T03:12:04.750Z,313
2023-09-13T03:12:35.574Z,313
2023-09-13T03:13:08.573Z,310
2023-09-13T03:13:39.756Z,310
2023-09-13T03:14:12.293Z,310
2023-09-13T03:14:43.569Z,309
2023-09-13T03:15:17.597Z,309
2023-09-13T03:15:47.923Z,309
2023-09-13T03:16:20.460Z,309
2023-09-13T03:16:51.625Z,309
2023-09-13T03:17:24.548Z,309
2023-09-13T03:17:56.905Z,309
2023-09-13T03:18:28.387Z,309
2023-09-13T03:18:59.898Z,309
2023-09-13T03:19:32.612Z,309
2023-09-13T03:20:03.923Z,309
2023-09-13T03:20:36.550Z,309
2023-09-13T03:21:07.724Z,309
2023-09-13T03:21:40.337Z,309
2023-09-13T03:22:11.666Z,309
2023-09-13T03:22:44.574Z,309
2023-09-13T03:23:15.653Z,309
2023-09-13T03:23:48.586Z,309
2023-09-13T03:24:19.700Z,309
2023-09-13T03:24:52.507Z,308
2023-09-13T03:25:23.836Z,308
2023-09-13T03:25:56.395Z,308
2023-09-13T03:26:27.655Z,308
2023-09-13T03:27:00.784Z,308
2023-09-13T03:27:31.641Z,308
2023-09-13T03:28:04.556Z,308
2023-09-13T03:28:35.662Z,308
2023-09-13T03:29:08.474Z,308
2023-09-13T03:29:39.595Z,308
2023-09-13T03:30:13.497Z,308
2023-09-13T03:30:43.626Z,308
2023-09-13T03:31:16.407Z,308
2023-09-13T03:31:47.809Z,101
2023-09-13T03:32:20.683Z,141
2023-09-13T03:32:51.608Z,141
2023-09-13T03:33:24.507Z,101
2023-09-13T03:33:55.737Z,101
2023-09-13T03:34:28.462Z,103
2023-09-13T03:34:59.531Z,103
2023-09-13T03:35:32.858Z,103
2023-09-13T03:36:03.716Z,103
2023-09-13T03:36:40.396Z,103
2023-09-13T03:37:07.701Z,103
2023-09-13T03:37:39.639Z,103
2023-09-13T03:38:11.517Z,103
2023-09-13T03:38:43.564Z,103
2023-09-13T03:39:15.586Z,103
2023-09-13T03:39:47.818Z,103
2023-09-13T03:40:19.965Z,105
2023-09-13T03:40:51.584Z,105
2023-09-13T03:41:23.632Z,105
2023-09-13T03:41:58.407Z,105
2023-09-13T03:42:28.602Z,105
2023-09-13T03:42:59.693Z,105
2023-09-13T03:43:32.397Z,105
2023-09-13T03:44:03.648Z,111
2023-09-13T03:44:36.474Z,111
2023-09-13T03:45:08.940Z,111
2023-09-13T03:45:40.648Z,111
2023-09-13T03:46:11.705Z,111
2023-09-13T03:46:44.598Z,111
2023-09-13T03:47:15.609Z,111
2023-09-13T03:47:48.694Z,111
2023-09-13T03:48:19.581Z,111
2023-09-13T03:48:52.883Z,111
2023-09-13T03:49:23.575Z,162
2023-09-13T03:49:56.430Z,196
2023-09-13T03:50:28.015Z,126
2023-09-13T03:51:01.258Z,154
2023-09-13T03:51:31.589Z,154
2023-09-13T03:52:04.553Z,154
2023-09-13T03:52:35.713Z,162
2023-09-13T03:53:08.236Z,162
2023-09-13T03:53:39.633Z,162
2023-09-13T03:54:12.456Z,162
2023-09-13T03:54:43.671Z,160
2023-09-13T03:55:16.778Z,162
2023-09-13T03:55:47.710Z,161
2023-09-13T03:56:20.314Z,161
2023-09-13T03:56:51.558Z,162
2023-09-13T03:57:24.488Z,161
2023-09-13T03:57:55.760Z,156
2023-09-13T03:58:28.491Z,149
2023-09-13T03:58:59.614Z,156
2023-09-13T03:59:32.601Z,154
2023-09-13T04:00:05.408Z,154
2023-09-13T04:00:36.950Z,154
2023-09-13T04:01:07.628Z,149
2023-09-13T04:01:40.507Z,156
2023-09-13T04:02:11.597Z,149
2023-09-13T04:02:44.635Z,149
2023-09-13T04:03:15.672Z,161
2023-09-13T04:03:48.846Z,152
2023-09-13T04:04:19.775Z,152
2023-09-13T04:04:52.592Z,152
2023-09-13T04:05:24.148Z,152
2023-09-13T04:05:56.473Z,152
2023-09-13T04:06:27.690Z,169
2023-09-13T04:07:00.520Z,175
2023-09-13T04:07:31.631Z,169
2023-09-13T04:08:04.635Z,169
2023-09-13T04:08:35.595Z,169
2023-09-13T04:09:08.560Z,169
2023-09-13T04:09:39.576Z,169
2023-09-13T04:10:12.878Z,169
2023-09-13T04:10:43.687Z,163
2023-09-13T04:11:16.300Z,163
2023-09-13T04:11:47.612Z,163
2023-09-13T04:12:20.633Z,163
2023-09-13T04:12:51.771Z,142
2023-09-13T04:13:24.653Z,142
2023-09-13T04:13:55.667Z,133
2023-09-13T04:14:28.568Z,133
2023-09-13T04:14:59.716Z,133
2023-09-13T04:15:33.697Z,133
2023-09-13T04:16:03.721Z,133
2023-09-13T04:16:36.595Z,133
2023-09-13T04:17:07.636Z,187
2023-09-13T04:17:40.748Z,187
2023-09-13T04:18:11.787Z,163
2023-09-13T04:18:44.353Z,137
2023-09-13T04:19:15.638Z,140
2023-09-13T04:19:48.529Z,140
2023-09-13T04:20:19.874Z,140
2023-09-13T04:20:52.556Z,140
2023-09-13T04:21:23.679Z,140
2023-09-13T04:21:56.578Z,140
2023-09-13T04:22:27.607Z,140
2023-09-13T04:23:00.568Z,140
2023-09-13T04:23:31.633Z,136
2023-09-13T04:24:04.320Z,136
2023-09-13T04:24:35.586Z,136
2023-09-13T04:25:08.884Z,136
2023-09-13T04:25:39.743Z,136
2023-09-13T04:26:12.557Z,136
2023-09-13T04:26:43.630Z,136
2023-09-13T04:27:16.590Z,220
2023-09-13T04:27:47.675Z,136
2023-09-13T04:28:20.364Z,136
2023-09-13T04:28:51.674Z,136
2023-09-13T04:29:24.568Z,186
2023-09-13T04:29:55.610Z,189
2023-09-13T04:30:29.910Z,189
2023-09-13T04:30:59.973Z,189
2023-09-13T04:31:32.548Z,189
2023-09-13T04:32:03.651Z,189
2023-09-13T04:32:36.648Z,189
2023-09-13T04:33:08.046Z,189
2023-09-13T04:33:40.431Z,189
2023-09-13T04:34:11.693Z,189
2023-09-13T04:34:44.438Z,189
2023-09-13T04:35:15.936Z,189
2023-09-13T04:35:48.625Z,219
2023-09-13T04:36:19.702Z,219
2023-09-13T04:36:52.434Z,219
2023-09-13T04:37:23.635Z,219
2023-09-13T04:37:56.556Z,219
2023-09-13T04:38:27.723Z,219
2023-09-13T04:39:00.481Z,219
2023-09-13T04:39:31.643Z,219
2023-09-13T04:40:05.061Z,219
2023-09-13T04:40:35.541Z,219
2023-09-13T04:41:08.524Z,219
2023-09-13T04:41:39.765Z,219
2023-09-13T04:42:12.806Z,243
2023-09-13T04:42:43.665Z,221
2023-09-13T04:42:59.912Z,223
2023-09-13T04:43:31.615Z,230
2023-09-13T04:44:03.627Z,224
2023-09-13T04:44:35.674Z,224
2023-09-13T04:45:08.746Z,224
2023-09-13T04:45:40.560Z,224
2023-09-13T04:46:11.780Z,224
2023-09-13T04:46:44.735Z,240
2023-09-13T04:47:15.535Z,240
2023-09-13T04:47:48.679Z,240
2023-09-13T04:48:19.689Z,240
2023-09-13T04:48:52.966Z,240
2023-09-13T04:49:23.609Z,240
2023-09-13T04:49:56.512Z,240
2023-09-13T04:50:28.179Z,240
2023-09-13T04:51:00.581Z,240
2023-09-13T04:51:31.640Z,240
2023-09-13T04:52:04.820Z,150
2023-09-13T04:52:35.770Z,243
2023-09-13T04:53:08.502Z,243
2023-09-13T04:53:39.641Z,243
2023-09-13T04:54:12.786Z,243
2023-09-13T04:54:43.758Z,243
2023-09-13T04:55:17.024Z,247
2023-09-13T04:55:47.916Z,183
2023-09-13T04:56:21.003Z,183
2023-09-13T04:56:51.881Z,183
2023-09-13T04:57:24.840Z,183
2023-09-13T04:57:55.983Z,183
2023-09-13T04:58:31.622Z,183
2023-09-13T04:58:59.870Z,183
2023-09-13T04:59:32.637Z,183
2023-09-13T05:00:05.756Z,183
2023-09-13T05:00:38.262Z,254
2023-09-13T05:01:08.265Z,254
2023-09-13T05:01:40.939Z,254
2023-09-13T05:02:12.032Z,218
2023-09-13T05:02:44.982Z,226
2023-09-13T05:03:15.982Z,226
2023-09-13T05:03:49.219Z,218
2023-09-13T05:04:19.964Z,226
2023-09-13T05:04:52.577Z,226
2023-09-13T05:05:24.364Z,227
2023-09-13T05:05:56.812Z,227
2023-09-13T05:06:27.789Z,227
2023-09-13T05:07:01.033Z,227
2023-09-13T05:07:31.833Z,227
2023-09-13T05:08:04.731Z,227
2023-09-13T05:08:35.873Z,227
2023-09-13T05:09:08.613Z,227
2023-09-13T05:09:39.781Z,249
2023-09-13T05:10:13.029Z,227
2023-09-13T05:10:43.995Z,223
2023-09-13T05:11:16.688Z,221
2023-09-13T05:11:47.894Z,242
2023-09-13T05:12:20.831Z,242
2023-09-13T05:12:52.057Z,221
2023-09-13T05:13:24.856Z,221
2023-09-13T05:13:55.835Z,243
2023-09-13T05:14:28.683Z,251
2023-09-13T05:15:00.023Z,251
2023-09-13T05:15:33.902Z,251
2023-09-13T05:16:04.061Z,251
2023-09-13T05:16:36.992Z,251
2023-09-13T05:17:07.933Z,251
2023-09-13T05:17:40.762Z,208
2023-09-13T05:18:11.916Z,217
2023-09-13T05:18:44.671Z,217
2023-09-13T05:19:15.855Z,217
2023-09-13T05:19:48.745Z,217
2023-09-13T05:20:20.330Z,217
2023-09-13T05:20:52.712Z,217
2023-09-13T05:21:23.908Z,217
2023-09-13T05:21:56.800Z,217
2023-09-13T05:22:27.836Z,221
2023-09-13T05:23:01.689Z,221
2023-09-13T05:23:31.947Z,221
2023-09-13T05:24:04.871Z,221
2023-09-13T05:24:35.804Z,215
2023-09-13T05:25:08.998Z,215
2023-09-13T05:25:39.983Z,221
2023-09-13T05:26:12.660Z,211
2023-09-13T05:26:43.867Z,225
2023-09-13T05:27:16.755Z,223
2023-09-13T05:27:47.984Z,223
2023-09-13T05:28:20.629Z,223
2023-09-13T05:28:51.905Z,223
2023-09-13T05:29:24.842Z,223
2023-09-13T05:29:55.934Z,223
2023-09-13T05:30:29.820Z,223
2023-09-13T05:31:00.118Z,186
2023-09-13T05:31:32.892Z,186
2023-09-13T05:32:04.095Z,224
2023-09-13T05:32:36.983Z,221
2023-09-13T05:33:07.933Z,224
2023-09-13T05:33:40.704Z,224
2023-09-13T05:34:11.895Z,224
2023-09-13T05:34:44.728Z,224
2023-09-13T05:35:16.230Z,211
2023-09-13T05:35:48.794Z,211
2023-09-13T05:36:19.965Z,224
2023-09-13T05:36:52.787Z,224
2023-09-13T05:37:23.928Z,211
2023-09-13T05:37:56.870Z,211
2023-09-13T05:38:27.947Z,224
2023-09-13T05:39:00.743Z,224
2023-09-13T05:39:31.796Z,224
2023-09-13T05:40:05.134Z,233
2023-09-13T05:40:35.961Z,233
2023-09-13T05:41:08.802Z,186
2023-09-13T05:41:39.891Z,241
2023-09-13T05:42:12.868Z,241
2023-09-13T05:42:43.964Z,241
2023-09-13T05:43:16.842Z,235
2023-09-13T05:43:48.069Z,317
2023-09-13T05:44:20.736Z,286
2023-09-13T05:44:51.863Z,145
2023-09-13T05:45:26.005Z,145
2023-09-13T05:45:56.134Z,246
2023-09-13T05:46:28.961Z,246
2023-09-13T05:46:59.945Z,246
2023-09-13T05:47:33.005Z,285
2023-09-13T05:48:04.148Z,184
2023-09-13T05:48:36.771Z,184
2023-09-13T05:49:08.002Z,184
2023-09-13T05:49:40.894Z,184
2023-09-13T05:50:12.126Z,292
2023-09-13T05:50:28.024Z,191
2023-09-13T05:51:00.170Z,184
2023-09-13T05:51:31.873Z,191
2023-09-13T05:52:05.089Z,191
2023-09-13T05:52:36.017Z,191
2023-09-13T05:53:08.659Z,176
2023-09-13T05:53:39.939Z,191
2023-09-13T05:54:12.852Z,184
2023-09-13T05:54:44.000Z,176
2023-09-13T05:55:18.071Z,184
2023-09-13T05:55:47.942Z,184
2023-09-13T05:56:20.826Z,184
2023-09-13T05:56:51.862Z,217
2023-09-13T05:57:24.860Z,243
2023-09-13T05:57:55.899Z,243
2023-09-13T05:58:28.554Z,175
2023-09-13T05:58:59.883Z,246
2023-09-13T05:59:32.685Z,246
2023-09-13T06:00:05.813Z,246
2023-09-13T06:00:36.907Z,246
2023-09-13T06:01:07.970Z,246
2023-09-13T06:01:40.830Z,246
2023-09-13T06:02:11.881Z,243
2023-09-13T06:02:45.057Z,246
2023-09-13T06:03:16.068Z,271
2023-09-13T06:03:48.898Z,271
2023-09-13T06:04:20.003Z,263
2023-09-13T06:04:52.790Z,246
2023-09-13T06:05:24.287Z,246
2023-09-13T06:05:56.582Z,190
2023-09-13T06:06:27.856Z,251
2023-09-13T06:07:00.923Z,246
2023-09-13T06:07:32.044Z,246
2023-09-13T06:08:04.893Z,246
2023-09-13T06:08:35.936Z,246
2023-09-13T06:09:08.905Z,246
2023-09-13T06:09:39.794Z,246
2023-09-13T06:10:13.193Z,246
2023-09-13T06:10:43.965Z,246
2023-09-13T06:11:16.809Z,246
2023-09-13T06:11:47.870Z,246
2023-09-13T06:12:20.864Z,246
2023-09-13T06:12:52.058Z,246
2023-09-13T06:13:24.828Z,246
2023-09-13T06:13:55.912Z,246
2023-09-13T06:14:28.776Z,239
2023-09-13T06:14:59.990Z,246
2023-09-13T06:15:34.061Z,246
2023-09-13T06:16:04.071Z,246
2023-09-13T06:16:36.965Z,246
2023-09-13T06:17:07.908Z,246
2023-09-13T06:17:42.123Z,246
2023-09-13T06:18:12.051Z,241
2023-09-13T06:18:44.738Z,241
2023-09-13T06:19:15.938Z,241
2023-09-13T06:19:48.726Z,180
2023-09-13T06:20:20.286Z,239
2023-09-13T06:20:52.826Z,239
2023-09-13T06:21:23.953Z,239
2023-09-13T06:21:56.859Z,238
2023-09-13T06:22:27.968Z,198
2023-09-13T06:23:00.906Z,201
2023-09-13T06:23:32.022Z,201
2023-09-13T06:24:04.875Z,257
2023-09-13T06:24:35.919Z,201
2023-09-13T06:25:10.926Z,201
2023-09-13T06:25:40.063Z,201
2023-09-13T06:26:13.758Z,201
2023-09-13T06:26:43.884Z,170
2023-09-13T06:27:17.014Z,186
2023-09-13T06:27:47.866Z,186
2023-09-13T06:28:20.777Z,250
2023-09-13T06:28:52.132Z,250
2023-09-13T06:29:24.794Z,250
2023-09-13T06:29:55.886Z,253
2023-09-13T06:30:29.915Z,253
2023-09-13T06:31:03.822Z,253
2023-09-13T06:31:34.280Z,253
2023-09-13T06:32:06.323Z,253
2023-09-13T06:32:41.242Z,253
2023-09-13T06:33:12.651Z,253
2023-09-13T06:33:42.821Z,287
2023-09-13T06:34:23.461Z,253
2023-09-13T06:34:44.790Z,244
2023-09-13T06:35:16.793Z,263
2023-09-13T06:35:48.977Z,263
2023-09-13T06:36:20.638Z,263
2023-09-13T06:36:53.364Z,263
2023-09-13T06:37:24.347Z,263
2023-09-13T06:37:56.956Z,263
2023-09-13T06:38:28.843Z,254
2023-09-13T06:39:01.061Z,254
2023-09-13T06:39:32.358Z,253
2023-09-13T06:40:05.254Z,263
2023-09-13T06:40:36.760Z,281
2023-09-13T06:41:09.373Z,256
2023-09-13T06:41:40.383Z,256
2023-09-13T06:42:26.683Z,256
2023-09-13T06:43:30.575Z,244
2023-09-13T06:44:05.335Z,256
2023-09-13T06:44:39.777Z,256
2023-09-13T06:44:53.437Z,253
2023-09-13T06:45:27.590Z,253
2023-09-13T06:46:04.341Z,253
2023-09-13T06:46:30.406Z,253
2023-09-13T06:47:04.686Z,253
2023-09-13T06:47:35.148Z,253
2023-09-13T06:48:04.547Z,236
2023-09-13T06:48:37.943Z,236
2023-09-13T06:49:08.840Z,236
2023-09-13T06:49:41.385Z,236
2023-09-13T06:50:15.132Z,236
2023-09-13T06:51:22.254Z,236
2023-09-13T06:51:48.889Z,236
2023-09-13T06:52:06.415Z,237
2023-09-13T06:52:44.280Z,237
2023-09-13T06:53:22.266Z,271
2023-09-13T06:54:14.111Z,255
2023-09-13T06:54:46.363Z,255
2023-09-13T06:55:19.037Z,229
2023-09-13T06:55:49.289Z,232
2023-09-13T06:56:23.963Z,232
2023-09-13T06:56:54.815Z,229
2023-09-13T06:57:26.455Z,229
2023-09-13T06:57:56.897Z,229
2023-09-13T06:58:29.694Z,229
2023-09-13T06:59:02.968Z,229
2023-09-13T06:59:41.914Z,237
2023-09-13T07:00:08.300Z,237
2023-09-13T07:00:48.277Z,237
2023-09-13T07:02:06.230Z,252
2023-09-13T07:02:27.553Z,115
2023-09-13T07:02:33.085Z,115
2023-09-13T07:03:01.725Z,101
2023-09-13T07:03:35.321Z,198
2023-09-13T07:04:09.362Z,257
2023-09-13T07:04:40.899Z,248
2023-09-13T07:05:40.066Z,253
2023-09-13T07:06:12.836Z,253
2023-09-13T07:06:43.934Z,253
2023-09-13T07:07:00.287Z,253
2023-09-13T07:07:31.889Z,248
2023-09-13T07:08:03.923Z,248
2023-09-13T07:08:37.028Z,253
2023-09-13T07:09:08.060Z,253
2023-09-13T07:09:40.668Z,253
2023-09-13T07:10:12.299Z,253
2023-09-13T07:10:44.789Z,253
2023-09-13T07:11:15.951Z,253
2023-09-13T07:11:49.037Z,253
2023-09-13T07:12:21.827Z,253
2023-09-13T07:12:53.033Z,253
2023-09-13T07:13:23.834Z,253
2023-09-13T07:13:56.779Z,253
2023-09-13T07:14:28.064Z,253
2023-09-13T07:15:02.495Z,268
2023-09-13T07:15:32.076Z,248
2023-09-13T07:16:04.962Z,248
2023-09-13T07:16:36.106Z,248
2023-09-13T07:17:09.150Z,248
2023-09-13T07:17:40.113Z,264
2023-09-13T07:18:12.843Z,248
2023-09-13T07:18:44.206Z,248
2023-09-13T07:19:16.757Z,265
2023-09-13T07:19:48.106Z,265
2023-09-13T07:20:21.240Z,267
2023-09-13T07:20:51.932Z,265
2023-09-13T07:21:24.880Z,265
2023-09-13T07:21:56.087Z,265
2023-09-13T07:22:28.906Z,266
2023-09-13T07:22:59.928Z,252
2023-09-13T07:23:32.944Z,257
2023-09-13T07:24:04.054Z,257
2023-09-13T07:24:37.113Z,175
2023-09-13T07:25:08.317Z,203
2023-09-13T07:25:41.152Z,249
2023-09-13T07:26:11.957Z,241
2023-09-13T07:26:44.850Z,241
2023-09-13T07:27:16.150Z,275
2023-09-13T07:27:48.906Z,266
2023-09-13T07:28:20.024Z,275
2023-09-13T07:28:52.983Z,247
2023-09-13T07:29:23.995Z,246
2023-09-13T07:29:56.757Z,246
2023-09-13T07:30:29.100Z,293
2023-09-13T07:31:01.100Z,272
2023-09-13T07:31:32.031Z,272
2023-09-13T07:32:05.381Z,272
2023-09-13T07:32:36.373Z,257
2023-09-13T07:33:09.401Z,250